Time;durP1;ratioP1;P1;durP2;ratioP2;P2;SDS_P1;SDS_P2;PMS_P1;PMS_P2;Temp;Humidity;BMP_temperature;BMP_pressure;BME280_temperature;BME280_humidity;BME280_pressure;Samples;Min_cycle;Max_cycle;Signal;HPM_P1;HPM_P2
2022/04/04 00:00:01;;;;;;;18.37;12.30;;;;;;;;;;5055024;28;20499;-66
2022/04/04 00:02:27;;;;;;;14.60;11.33;;;;;;;;;;5054361;28;20850;-65
2022/04/04 00:04:53;;;;;;;11.50;10.17;;;;;;;;;;5055618;28;20404;-65
2022/04/04 00:07:19;;;;;;;12.37;10.53;;;;;;;;;;5058873;28;20676;-65
2022/04/04 00:09:46;;;;;;;12.53;10.23;;;;;;;;;;5058326;28;20205;-66
2022/04/04 00:12:12;;;;;;;11.37;9.73;;;;;;;;;;5058230;28;20201;-65
2022/04/04 00:14:38;;;;;;;11.97;10.47;;;;;;;;;;5058038;28;20417;-65
2022/04/04 00:17:05;;;;;;;12.17;10.50;;;;;;;;;;5058013;28;20409;-65
2022/04/04 00:19:31;;;;;;;11.70;9.63;;;;;;;;;;5039889;28;20285;-66
2022/04/04 00:21:57;;;;;;;11.83;10.37;;;;;;;;;;5039961;28;20452;-65
2022/04/04 00:24:23;;;;;;;12.20;9.70;;;;;;;;;;5040190;28;20417;-66
2022/04/04 00:26:49;;;;;;;12.97;10.63;;;;;;;;;;5040390;28;20874;-66
2022/04/04 00:29:15;;;;;;;12.47;11.17;;;;;;;;;;5058063;28;20405;-65
2022/04/04 00:31:41;;;;;;;11.50;10.30;;;;;;;;;;5057743;28;20251;-65
2022/04/04 00:34:07;;;;;;;11.03;9.93;;;;;;;;;;5057984;28;20409;-66
2022/04/04 00:36:33;;;;;;;10.80;9.70;;;;;;;;;;5039837;28;20182;-66
2022/04/04 00:38:59;;;;;;;11.57;9.60;;;;;;;;;;5058047;28;20413;-65
2022/04/04 00:41:25;;;;;;;11.47;10.37;;;;;;;;;;5057399;28;20557;-65
2022/04/04 00:43:54;;;;;;;11.90;10.63;;;;;;;;;;5057688;28;20192;-65
2022/04/04 00:46:20;;;;;;;11.00;9.57;;;;;;;;;;5039668;28;20175;-66
2022/04/04 00:48:47;;;;;;;11.70;10.20;;;;;;;;;;5039844;28;20426;-66
2022/04/04 00:51:13;;;;;;;12.73;9.90;;;;;;;;;;5057569;28;20488;-66
2022/04/04 00:53:39;;;;;;;14.50;10.37;;;;;;;;;;5057664;28;20436;-65
2022/04/04 00:56:06;;;;;;;9.97;8.97;;;;;;;;;;5057758;28;20459;-64
2022/04/04 00:58:32;;;;;;;13.40;10.00;;;;;;;;;;5039521;28;20432;-65
2022/04/04 01:00:58;;;;;;;12.30;10.00;;;;;;;;;;5057733;28;20785;-65
2022/04/04 01:03:25;;;;;;;10.33;9.30;;;;;;;;;;5039400;28;20846;-65
2022/04/04 01:05:51;;;;;;;10.57;9.37;;;;;;;;;;5039230;28;20919;-66
2022/04/04 01:08:17;;;;;;;11.17;9.13;;;;;;;;;;5056933;28;20449;-65
2022/04/04 01:10:43;;;;;;;10.03;8.73;;;;;;;;;;5057671;28;20178;-66
2022/04/04 01:13:10;;;;;;;10.30;9.20;;;;;;;;;;5056738;28;20247;-65
2022/04/04 01:15:36;;;;;;;12.93;9.03;;;;;;;;;;5056594;28;20413;-65
2022/04/04 01:18:03;;;;;;;11.00;8.73;;;;;;;;;;5056967;28;20774;-66
2022/04/04 01:20:29;;;;;;;9.57;8.60;;;;;;;;;;5038857;28;20426;-65
2022/04/04 01:22:55;;;;;;;11.87;9.07;;;;;;;;;;5056320;28;20476;-65
2022/04/04 01:25:39;;;;;;;10.33;8.57;;;;;;;;;;5038865;28;20273;-65
2022/04/04 01:28:06;;;;;;;10.80;8.33;;;;;;;;;;5038890;28;20467;-65
2022/04/04 01:30:32;;;;;;;9.17;8.27;;;;;;;;;;5038906;28;20421;-65
2022/04/04 01:32:58;;;;;;;10.60;8.33;;;;;;;;;;5038502;28;20465;-65
2022/04/04 01:35:24;;;;;;;9.90;8.80;;;;;;;;;;5038567;28;20417;-65
2022/04/04 01:37:50;;;;;;;10.77;8.43;;;;;;;;;;5038586;28;20500;-65
2022/04/04 01:40:16;;;;;;;9.30;8.20;;;;;;;;;;5038812;28;20449;-65
2022/04/04 01:42:42;;;;;;;13.90;8.47;;;;;;;;;;5038468;28;20198;-65
2022/04/04 01:45:09;;;;;;;14.33;7.87;;;;;;;;;;5038196;28;20507;-65
2022/04/04 01:47:35;;;;;;;9.67;8.33;;;;;;;;;;5056066;28;20441;-66
2022/04/04 01:50:01;;;;;;;8.63;7.67;;;;;;;;;;5038592;28;20410;-66
2022/04/04 01:52:27;;;;;;;8.90;8.00;;;;;;;;;;5056466;28;20773;-66
2022/04/04 01:54:53;;;;;;;9.73;8.40;;;;;;;;;;5056244;28;20175;-65
2022/04/04 01:57:19;;;;;;;10.33;8.50;;;;;;;;;;5056104;28;20416;-65
2022/04/04 01:59:46;;;;;;;11.17;7.87;;;;;;;;;;5055244;28;20236;-66
2022/04/04 02:02:12;;;;;;;10.17;8.20;;;;;;;;;;5055095;28;20487;-65
2022/04/04 02:04:38;;;;;;;9.23;8.03;;;;;;;;;;5038154;28;20486;-66
2022/04/04 02:07:05;;;;;;;9.20;7.67;;;;;;;;;;5056050;28;20460;-66
2022/04/04 02:09:32;;;;;;;10.07;8.40;;;;;;;;;;5037873;28;20179;-65
2022/04/04 02:11:58;;;;;;;9.07;7.87;;;;;;;;;;5056215;28;20432;-65
2022/04/04 02:14:24;;;;;;;10.23;8.60;;;;;;;;;;5056371;28;20406;-66
2022/04/04 02:16:50;;;;;;;8.77;7.57;;;;;;;;;;5037760;28;20432;-65
2022/04/04 02:19:17;;;;;;;10.80;8.67;;;;;;;;;;5055670;28;20940;-65
2022/04/04 02:21:43;;;;;;;13.37;9.10;;;;;;;;;;5038418;28;20445;-65
2022/04/04 02:24:09;;;;;;;12.87;8.70;;;;;;;;;;5037862;28;20413;-66
2022/04/04 02:26:35;;;;;;;10.53;8.27;;;;;;;;;;5055630;28;20424;-65
2022/04/04 02:29:01;;;;;;;13.57;8.57;;;;;;;;;;5055363;28;20229;-65
2022/04/04 02:31:27;;;;;;;12.23;8.50;;;;;;;;;;5037665;28;20447;-65
2022/04/04 02:33:53;;;;;;;12.47;8.73;;;;;;;;;;5038027;28;20597;-65
2022/04/04 02:36:20;;;;;;;11.63;8.73;;;;;;;;;;5055275;28;20181;-65
2022/04/04 02:38:46;;;;;;;12.23;9.00;;;;;;;;;;5056699;28;20542;-65
2022/04/04 02:41:12;;;;;;;12.73;9.23;;;;;;;;;;5057869;28;20417;-67
2022/04/04 02:43:39;;;;;;;11.60;8.40;;;;;;;;;;5057012;28;20433;-65
2022/04/04 02:46:05;;;;;;;13.70;8.70;;;;;;;;;;5055397;28;20441;-65
2022/04/04 02:48:31;;;;;;;14.43;9.63;;;;;;;;;;5055539;28;20448;-65
2022/04/04 02:50:57;;;;;;;10.30;8.40;;;;;;;;;;5055131;28;20412;-66
2022/04/04 02:53:23;;;;;;;15.27;8.93;;;;;;;;;;5055870;28;20624;-65
2022/04/04 02:58:34;;;;;;;9.77;8.23;;;;;;;;;;5067875;28;20173;-65
2022/04/04 03:01:00;;;;;;;10.33;7.97;;;;;;;;;;5063746;28;20511;-65
2022/04/04 03:03:26;;;;;;;11.37;8.90;;;;;;;;;;5066427;28;20452;-65
2022/04/04 03:05:51;;;;;;;11.07;8.73;;;;;;;;;;5048363;28;20417;-66
2022/04/04 03:08:17;;;;;;;11.07;8.13;;;;;;;;;;5062511;28;20203;-65
2022/04/04 03:10:44;;;;;;;11.70;8.37;;;;;;;;;;5057212;28;20181;-65
2022/04/04 03:13:10;;;;;;;11.27;7.70;;;;;;;;;;5055660;28;20221;-65
2022/04/04 03:15:37;;;;;;;9.97;8.00;;;;;;;;;;5055172;28;20409;-65
2022/04/04 03:18:04;;;;;;;8.97;7.23;;;;;;;;;;5055587;28;20182;-65
2022/04/04 03:20:31;;;;;;;10.93;7.73;;;;;;;;;;5039001;28;20476;-67
2022/04/04 03:22:57;;;;;;;9.67;7.63;;;;;;;;;;5043123;28;20457;-65
2022/04/04 03:25:24;;;;;;;12.43;7.63;;;;;;;;;;5060086;28;20420;-65
2022/04/04 03:27:50;;;;;;;9.83;7.93;;;;;;;;;;5061669;28;20448;-65
2022/04/04 03:30:18;;;;;;;10.10;8.00;;;;;;;;;;5061104;28;20940;-65
2022/04/04 03:32:47;;;;;;;10.70;7.20;;;;;;;;;;5055368;28;20447;-64
2022/04/04 03:35:14;;;;;;;9.13;7.70;;;;;;;;;;5055250;28;20439;-66
2022/04/04 03:37:41;;;;;;;11.87;7.57;;;;;;;;;;5055421;28;20448;-65
2022/04/04 03:40:09;;;;;;;11.17;7.47;;;;;;;;;;5039939;28;20421;-65
2022/04/04 03:42:37;;;;;;;9.50;7.07;;;;;;;;;;5058793;28;20482;-65
2022/04/04 03:45:03;;;;;;;8.27;7.47;;;;;;;;;;5059056;28;20441;-65
2022/04/04 03:47:29;;;;;;;9.53;7.50;;;;;;;;;;5058746;28;20452;-65
2022/04/04 03:49:55;;;;;;;10.57;8.17;;;;;;;;;;5041020;28;20416;-68
2022/04/04 03:52:21;;;;;;;7.80;7.00;;;;;;;;;;5058404;28;20194;-65
2022/04/04 03:54:47;;;;;;;8.87;7.30;;;;;;;;;;5057994;28;20174;-65
2022/04/04 03:57:13;;;;;;;12.03;7.40;;;;;;;;;;5057147;28;20561;-65
2022/04/04 03:59:39;;;;;;;10.80;8.33;;;;;;;;;;5039745;28;20421;-65
2022/04/04 04:02:05;;;;;;;9.83;7.30;;;;;;;;;;5040032;28;20944;-65
2022/04/04 04:04:31;;;;;;;8.80;7.40;;;;;;;;;;5058105;28;20409;-63
2022/04/04 04:06:57;;;;;;;10.30;7.53;;;;;;;;;;5040159;28;20456;-63
2022/04/04 04:09:23;;;;;;;14.73;7.30;;;;;;;;;;5058461;28;20220;-63
2022/04/04 04:11:49;;;;;;;9.47;7.60;;;;;;;;;;5058113;28;20654;-65
2022/04/04 04:14:15;;;;;;;10.57;7.37;;;;;;;;;;5040183;28;20665;-65
2022/04/04 04:16:41;;;;;;;11.50;7.90;;;;;;;;;;5058401;28;20416;-63
2022/04/04 04:20:19;;;;;;;10.33;7.07;;;;;;;;;;5040069;28;20432;-63
2022/04/04 04:21:53;;;;;;;8.37;7.33;;;;;;;;;;5057544;28;20222;-63
2022/04/04 04:24:19;;;;;;;10.07;7.87;;;;;;;;;;5058143;28;20407;-65
2022/04/04 04:26:45;;;;;;;11.67;7.77;;;;;;;;;;5039818;28;20297;-65
2022/04/04 04:29:11;;;;;;;9.33;7.20;;;;;;;;;;5057985;28;20455;-65
2022/04/04 04:31:37;;;;;;;11.17;7.67;;;;;;;;;;5058137;28;20174;-65
2022/04/04 04:34:03;;;;;;;8.70;7.30;;;;;;;;;;5039938;28;20174;-65
2022/04/04 04:36:29;;;;;;;10.97;7.77;;;;;;;;;;5082077;22;20205;-66
2022/04/04 04:38:55;;;;;;;9.67;7.33;;;;;;;;;;5057000;28;20171;-66
2022/04/04 04:41:22;;;;;;;7.60;6.67;;;;;;;;;;5056790;28;20854;-65
2022/04/04 04:43:48;;;;;;;9.33;7.60;;;;;;;;;;5057222;28;20458;-66
2022/04/04 04:46:14;;;;;;;12.80;7.57;;;;;;;;;;5039179;28;20413;-65
2022/04/04 04:48:40;;;;;;;8.90;7.07;;;;;;;;;;5036912;28;20454;-66
2022/04/04 04:51:05;;;;;;;8.70;7.67;;;;;;;;;;5036410;28;20425;-66
2022/04/04 04:53:32;;;;;;;11.80;8.20;;;;;;;;;;5018917;28;20328;-66
2022/04/04 04:55:58;;;;;;;12.00;8.23;;;;;;;;;;5018801;28;20719;-64
2022/04/04 04:58:24;;;;;;;12.03;7.87;;;;;;;;;;5037418;28;20454;-66
2022/04/04 05:00:50;;;;;;;8.77;7.43;;;;;;;;;;5037514;28;20183;-66
2022/04/04 05:03:25;;;;;;;8.60;7.70;;;;;;;;;;5019077;28;20225;-67
2022/04/04 05:05:51;;;;;;;11.03;8.80;;;;;;;;;;5019015;28;20182;-66
2022/04/04 05:08:17;;;;;;;10.63;8.57;;;;;;;;;;5037045;28;20484;-65
2022/04/04 05:10:43;;;;;;;10.50;8.30;;;;;;;;;;5036497;28;20183;-66
2022/04/04 05:13:09;;;;;;;10.60;8.57;;;;;;;;;;5036474;28;20410;-65
2022/04/04 05:15:35;;;;;;;11.70;8.53;;;;;;;;;;5018753;28;20530;-66
2022/04/04 05:18:01;;;;;;;11.23;8.17;;;;;;;;;;5036274;28;20246;-66
2022/04/04 05:20:28;;;;;;;11.10;7.10;;;;;;;;;;5036669;28;20421;-66
2022/04/04 05:22:54;;;;;;;11.17;8.57;;;;;;;;;;5036463;28;20554;-68
2022/04/04 05:25:20;;;;;;;9.63;8.60;;;;;;;;;;5018323;28;20501;-66
2022/04/04 05:27:46;;;;;;;12.30;9.10;;;;;;;;;;5018147;28;20527;-66
2022/04/04 05:30:12;;;;;;;12.20;8.97;;;;;;;;;;5018841;28;20460;-66
2022/04/04 05:32:38;;;;;;;12.93;9.07;;;;;;;;;;5036099;28;20906;-66
2022/04/04 05:35:08;;;;;;;12.13;9.80;;;;;;;;;;5018367;28;20414;-66
2022/04/04 05:37:34;;;;;;;18.97;9.97;;;;;;;;;;5035804;28;20226;-65
2022/04/04 05:40:00;;;;;;;13.97;9.73;;;;;;;;;;5036230;28;20508;-67
2022/04/04 05:42:26;;;;;;;15.97;9.57;;;;;;;;;;5018069;28;20450;-66
2022/04/04 05:44:52;;;;;;;14.53;9.17;;;;;;;;;;5036036;28;20672;-66
2022/04/04 05:47:20;;;;;;;17.93;8.63;;;;;;;;;;5035755;28;20230;-67
2022/04/04 05:49:46;;;;;;;15.87;9.40;;;;;;;;;;5036245;28;20414;-68
2022/04/04 05:52:12;;;;;;;16.83;9.17;;;;;;;;;;5035625;28;20406;-66
2022/04/04 05:54:53;;;;;;;15.47;9.87;;;;;;;;;;5035845;28;20406;-65
2022/04/04 05:57:20;;;;;;;15.63;9.83;;;;;;;;;;5035571;28;20252;-66
2022/04/04 05:59:45;;;;;;;15.67;10.50;;;;;;;;;;5035812;28;20894;-66
2022/04/04 06:02:13;;;;;;;11.90;9.20;;;;;;;;;;5017286;28;20414;-66
2022/04/04 06:04:39;;;;;;;15.13;9.73;;;;;;;;;;5017829;28;20179;-66
2022/04/04 06:07:05;;;;;;;13.63;8.70;;;;;;;;;;5035709;28;20461;-65
2022/04/04 06:09:31;;;;;;;12.83;8.60;;;;;;;;;;5035391;28;20253;-66
2022/04/04 06:11:57;;;;;;;14.17;9.47;;;;;;;;;;5035085;28;20445;-66
2022/04/04 06:14:23;;;;;;;11.80;8.10;;;;;;;;;;5034955;28;20179;-69
2022/04/04 06:16:49;;;;;;;19.17;9.70;;;;;;;;;;5034700;28;20488;-67
2022/04/04 06:19:16;;;;;;;16.30;10.27;;;;;;;;;;5017379;28;20183;-66
2022/04/04 06:21:42;;;;;;;18.77;9.33;;;;;;;;;;5035239;28;20183;-66
2022/04/04 06:24:08;;;;;;;15.83;8.13;;;;;;;;;;5035432;28;20413;-66
2022/04/04 06:26:34;;;;;;;12.37;8.67;;;;;;;;;;5034804;28;20179;-66
2022/04/04 06:29:00;;;;;;;13.43;8.50;;;;;;;;;;5034766;28;20175;-68
2022/04/04 06:31:26;;;;;;;15.50;8.90;;;;;;;;;;5034650;28;20262;-65
2022/04/04 06:33:52;;;;;;;13.60;8.93;;;;;;;;;;5034667;28;20182;-66
2022/04/04 06:36:18;;;;;;;9.40;7.07;;;;;;;;;;5017119;28;20179;-65
2022/04/04 06:38:44;;;;;;;10.30;8.17;;;;;;;;;;5017308;28;20183;-65
2022/04/04 06:41:11;;;;;;;13.20;8.37;;;;;;;;;;5017079;28;20186;-66
2022/04/04 06:43:38;;;;;;;11.17;8.17;;;;;;;;;;5035109;28;20187;-67
2022/04/04 06:46:05;;;;;;;11.87;7.97;;;;;;;;;;5017271;28;20253;-65
2022/04/04 06:48:31;;;;;;;13.43;7.77;;;;;;;;;;5034607;28;20692;-66
2022/04/04 06:50:59;;;;;;;11.27;8.03;;;;;;;;;;5035137;28;20501;-66
2022/04/04 06:53:25;;;;;;;13.70;7.90;;;;;;;;;;5034954;28;20172;-67
2022/04/04 06:55:51;;;;;;;8.13;7.10;;;;;;;;;;5034623;28;20180;-65
2022/04/04 06:58:17;;;;;;;10.67;7.67;;;;;;;;;;5034629;28;20281;-66
2022/04/04 07:00:45;;;;;;;12.73;8.70;;;;;;;;;;5034415;28;20191;-67
2022/04/04 07:03:11;;;;;;;10.10;7.93;;;;;;;;;;5034253;28;20171;-66
2022/04/04 07:05:37;;;;;;;13.00;7.90;;;;;;;;;;5034725;28;20607;-67
2022/04/04 07:08:03;;;;;;;17.13;8.80;;;;;;;;;;5034358;28;20565;-66
2022/04/04 07:10:29;;;;;;;12.70;8.63;;;;;;;;;;5035060;28;20258;-65
2022/04/04 07:12:55;;;;;;;9.93;7.47;;;;;;;;;;5034718;28;20236;-67
2022/04/04 07:15:21;;;;;;;11.93;7.70;;;;;;;;;;5041062;28;20183;-66
2022/04/04 07:17:47;;;;;;;10.73;7.77;;;;;;;;;;5040943;28;20289;-66
2022/04/04 07:20:13;;;;;;;11.17;7.77;;;;;;;;;;5040767;28;20212;-66
2022/04/04 07:22:40;;;;;;;10.80;8.10;;;;;;;;;;5040882;28;20615;-65
2022/04/04 07:25:07;;;;;;;10.67;6.83;;;;;;;;;;5040887;28;20595;-66
2022/04/04 07:27:33;;;;;;;13.50;7.90;;;;;;;;;;5040571;28;20221;-66
2022/04/04 07:29:59;;;;;;;10.70;8.33;;;;;;;;;;5041502;28;20175;-65
2022/04/04 07:32:26;;;;;;;12.47;7.83;;;;;;;;;;5041178;28;20181;-65
2022/04/04 07:34:52;;;;;;;11.37;8.33;;;;;;;;;;5040991;28;20205;-66
2022/04/04 07:37:18;;;;;;;11.93;8.20;;;;;;;;;;5041229;28;20301;-66
2022/04/04 07:39:44;;;;;;;8.77;7.57;;;;;;;;;;5024040;28;20268;-66
2022/04/04 07:42:11;;;;;;;10.70;7.60;;;;;;;;;;5041429;28;20175;-64
2022/04/04 07:44:39;;;;;;;11.47;7.20;;;;;;;;;;5023499;28;20194;-66
2022/04/04 07:47:05;;;;;;;9.10;7.23;;;;;;;;;;5023372;28;20650;-66
2022/04/04 07:49:31;;;;;;;11.10;8.03;;;;;;;;;;5041173;28;20206;-64
2022/04/04 07:51:57;;;;;;;13.43;7.33;;;;;;;;;;5041295;28;20183;-65
2022/04/04 07:54:23;;;;;;;9.33;7.00;;;;;;;;;;5023609;28;20179;-67
2022/04/04 07:56:53;;;;;;;9.33;6.70;;;;;;;;;;5041002;28;20689;-65
2022/04/04 07:59:19;;;;;;;12.90;7.67;;;;;;;;;;5023287;28;20170;-66
2022/04/04 08:01:45;;;;;;;9.90;6.90;;;;;;;;;;5041082;28;20719;-66
2022/04/04 08:04:12;;;;;;;11.00;6.70;;;;;;;;;;5041060;28;20524;-66
2022/04/04 08:06:38;;;;;;;9.17;6.73;;;;;;;;;;5041163;28;20274;-66
2022/04/04 08:09:04;;;;;;;13.07;7.20;;;;;;;;;;5042022;28;20574;-64
2022/04/04 08:11:30;;;;;;;10.37;7.53;;;;;;;;;;5041071;28;20569;-65
2022/04/04 08:13:56;;;;;;;9.90;6.93;;;;;;;;;;5041391;28;20254;-66
2022/04/04 08:16:25;;;;;;;14.00;8.00;;;;;;;;;;5040772;28;20631;-65
2022/04/04 08:18:51;;;;;;;9.30;7.40;;;;;;;;;;5023423;28;20237;-64
2022/04/04 08:21:17;;;;;;;9.17;7.43;;;;;;;;;;5040948;28;20191;-65
2022/04/04 08:23:43;;;;;;;9.30;7.43;;;;;;;;;;5040926;28;20262;-65
2022/04/04 08:26:09;;;;;;;8.77;7.67;;;;;;;;;;5037641;28;20178;-66
2022/04/04 08:28:35;;;;;;;11.23;8.43;;;;;;;;;;5020133;28;20214;-67
2022/04/04 08:31:01;;;;;;;9.67;7.67;;;;;;;;;;5037406;28;20179;-65
2022/04/04 08:33:27;;;;;;;11.00;7.60;;;;;;;;;;5019576;28;20203;-64
2022/04/04 08:35:53;;;;;;;9.90;8.00;;;;;;;;;;5037598;28;20183;-64
2022/04/04 08:38:20;;;;;;;8.33;7.03;;;;;;;;;;5019608;28;20569;-65
2022/04/04 08:40:48;;;;;;;7.93;6.27;;;;;;;;;;5037735;28;20669;-65
2022/04/04 08:43:16;;;;;;;8.60;7.53;;;;;;;;;;5019389;28;20187;-65
2022/04/04 08:45:42;;;;;;;8.73;6.93;;;;;;;;;;5037145;28;20180;-65
2022/04/04 08:48:09;;;;;;;8.03;6.80;;;;;;;;;;5019103;28;20207;-64
2022/04/04 08:50:36;;;;;;;7.60;6.53;;;;;;;;;;5037430;28;20171;-64
2022/04/04 08:53:02;;;;;;;11.83;8.03;;;;;;;;;;5037418;28;20741;-66
2022/04/04 08:55:29;;;;;;;7.03;5.90;;;;;;;;;;5037401;28;20171;-65
2022/04/04 08:57:56;;;;;;;11.63;7.33;;;;;;;;;;5019247;28;20293;-65
2022/04/04 09:00:22;;;;;;;8.13;6.90;;;;;;;;;;5037176;28;20175;-65
2022/04/04 09:02:58;;;;;;;6.97;5.83;;;;;;;;;;5037204;28;20554;-65
2022/04/04 09:05:24;;;;;;;8.03;6.73;;;;;;;;;;5019153;28;20193;-64
2022/04/04 09:08:00;;;;;;;9.13;6.30;;;;;;;;;;5018907;28;20292;-64
2022/04/04 09:10:33;;;;;;;9.07;5.43;;;;;;;;;;5037210;28;20674;-64
2022/04/04 09:13:06;;;;;;;8.40;7.13;;;;;;;;;;5037089;28;20175;-65
2022/04/04 09:15:51;;;;;;;10.07;7.53;;;;;;;;;;5019325;28;20182;-65
2022/04/04 09:18:18;;;;;;;6.97;5.90;;;;;;;;;;5018521;28;20198;-65
2022/04/04 09:20:50;;;;;;;8.53;7.00;;;;;;;;;;5036058;28;20183;-65
2022/04/04 09:23:17;;;;;;;10.20;7.57;;;;;;;;;;5018923;28;20187;-66
2022/04/04 09:25:43;;;;;;;5.83;5.17;;;;;;;;;;5036455;28;20647;-66
2022/04/04 09:28:15;;;;;;;12.27;8.20;;;;;;;;;;5018397;28;20237;-65
2022/04/04 09:30:41;;;;;;;8.17;6.70;;;;;;;;;;5036180;28;20605;-65
2022/04/04 09:33:07;;;;;;;8.03;6.77;;;;;;;;;;5036093;28;20183;-66
2022/04/04 09:35:44;;;;;;;7.97;7.17;;;;;;;;;;5036355;28;20589;-66
2022/04/04 09:38:14;;;;;;;9.33;7.17;;;;;;;;;;5017829;28;20325;-66
2022/04/04 09:40:40;;;;;;;8.53;7.63;;;;;;;;;;5018393;28;20240;-66
2022/04/04 09:43:06;;;;;;;14.97;9.90;;;;;;;;;;5035849;28;20183;-65
2022/04/04 09:45:32;;;;;;;9.10;8.00;;;;;;;;;;5017951;28;20179;-64
2022/04/04 09:47:59;;;;;;;8.43;6.30;;;;;;;;;;5035775;28;20211;-66
2022/04/04 09:50:32;;;;;;;11.73;8.53;;;;;;;;;;5018433;28;20179;-66
2022/04/04 09:52:59;;;;;;;11.87;8.67;;;;;;;;;;5018046;28;20183;-66
2022/04/04 09:55:32;;;;;;;9.87;8.73;;;;;;;;;;5017998;28;20184;-64
2022/04/04 09:57:59;;;;;;;11.77;9.97;;;;;;;;;;5017467;28;20203;-65
2022/04/04 10:00:25;;;;;;;14.57;10.47;;;;;;;;;;5017485;28;20179;-66
2022/04/04 10:02:54;;;;;;;11.17;7.93;;;;;;;;;;5035347;28;20179;-66
2022/04/04 10:05:21;;;;;;;10.57;8.00;;;;;;;;;;5017017;28;20598;-67
2022/04/04 10:07:48;;;;;;;10.07;8.10;;;;;;;;;;5017159;28;20753;-66
2022/04/04 10:10:16;;;;;;;12.93;8.03;;;;;;;;;;5035773;28;20174;-64
2022/04/04 10:12:45;;;;;;;11.37;7.33;;;;;;;;;;5017652;28;20663;-67
2022/04/04 10:15:11;;;;;;;11.43;8.10;;;;;;;;;;5017660;28;20230;-65
2022/04/04 10:17:38;;;;;;;15.97;9.17;;;;;;;;;;5017348;28;20210;-63
2022/04/04 10:20:05;;;;;;;11.90;8.20;;;;;;;;;;5035163;28;20596;-65
2022/04/04 10:27:46;;;;;;;11.40;8.83;;;;;;;;;;5314960;22;20289;-63
2022/04/04 10:30:13;;;;;;;7.70;6.87;;;;;;;;;;5015750;28;20200;-65
2022/04/04 10:32:48;;;;;;;8.87;7.20;;;;;;;;;;5015779;28;20602;-63
2022/04/04 10:35:14;;;;;;;8.70;7.53;;;;;;;;;;5015827;28;20554;-64
2022/04/04 10:37:42;;;;;;;13.90;8.63;;;;;;;;;;4997494;28;20203;-65
2022/04/04 10:40:19;;;;;;;7.03;6.33;;;;;;;;;;5015362;28;20183;-64
2022/04/04 10:42:46;;;;;;;10.27;8.17;;;;;;;;;;5015602;28;20183;-64
2022/04/04 10:47:48;;;;;;;8.97;8.07;;;;;;;;;;5159521;22;20381;-64
2022/04/04 10:52:51;;;;;;;12.47;9.83;;;;;;;;;;5466017;23;20633;-64
2022/04/04 10:55:38;;;;;;;10.83;9.67;;;;;;;;;;4997003;28;20265;-64
2022/04/04 10:58:16;;;;;;;10.03;9.03;;;;;;;;;;4997143;28;20211;-66
2022/04/04 11:01:03;;;;;;;13.40;11.03;;;;;;;;;;5014751;28;20167;-64
2022/04/04 11:03:39;;;;;;;16.07;11.67;;;;;;;;;;4997114;28;20203;-64
2022/04/04 11:09:00;;;;;;;15.77;11.97;;;;;;;;;;5014785;28;20462;-63
2022/04/04 11:11:42;;;;;;;14.83;13.23;;;;;;;;;;5015152;28;20411;-63
2022/04/04 11:17:02;;;;;;;18.23;16.33;;;;;;;;;;5595831;22;20525;-65
2022/04/04 11:19:29;;;;;;;14.50;10.47;;;;;;;;;;4997050;28;20250;-68
2022/04/04 11:21:55;;;;;;;20.83;15.03;;;;;;;;;;5015024;28;20713;-68
2022/04/04 11:24:21;;;;;;;12.63;10.87;;;;;;;;;;5014795;28;20440;-67
2022/04/04 11:26:47;;;;;;;17.10;14.77;;;;;;;;;;5014531;28;20254;-67
2022/04/04 11:29:19;;;;;;;17.77;12.80;;;;;;;;;;5015304;28;20254;-65
2022/04/04 11:31:48;;;;;;;17.13;14.30;;;;;;;;;;5015310;28;20744;-67
2022/04/04 11:34:14;;;;;;;15.57;12.73;;;;;;;;;;5014853;28;20176;-67
2022/04/04 11:36:41;;;;;;;17.07;14.83;;;;;;;;;;5014455;28;20234;-65
2022/04/04 11:42:10;;;;;;;13.33;11.93;;;;;;;;;;5033731;28;20791;-65
2022/04/04 11:44:44;;;;;;;13.87;12.37;;;;;;;;;;5033993;28;20167;-65
2022/04/04 11:47:10;;;;;;;17.13;13.00;;;;;;;;;;5034078;28;20294;-65
2022/04/04 11:49:37;;;;;;;16.27;13.10;;;;;;;;;;5034083;28;20191;-64
2022/04/04 11:52:07;;;;;;;15.93;13.57;;;;;;;;;;5033789;28;20664;-65
2022/04/04 11:54:43;;;;;;;19.47;15.37;;;;;;;;;;5033767;28;20183;-64
2022/04/04 11:57:10;;;;;;;16.10;13.23;;;;;;;;;;5016073;28;20512;-64
2022/04/04 11:59:36;;;;;;;16.70;12.83;;;;;;;;;;5034627;28;20210;-64
2022/04/04 12:02:07;;;;;;;14.97;13.43;;;;;;;;;;5019922;28;20183;-65
2022/04/04 12:04:34;;;;;;;14.20;12.80;;;;;;;;;;5038277;28;20170;-64
2022/04/04 12:07:01;;;;;;;14.77;11.33;;;;;;;;;;5037430;28;20864;-64
2022/04/04 12:09:29;;;;;;;13.87;11.90;;;;;;;;;;5037551;28;20199;-64
2022/04/04 12:12:12;;;;;;;13.90;11.43;;;;;;;;;;5037470;28;20542;-64
2022/04/04 12:14:43;;;;;;;12.90;11.57;;;;;;;;;;5020173;28;20187;-64
2022/04/04 12:17:11;;;;;;;14.33;12.70;;;;;;;;;;5037263;28;20172;-64
2022/04/04 12:19:49;;;;;;;13.93;12.63;;;;;;;;;;5020150;28;20441;-62
2022/04/04 12:25:05;;;;;;;13.77;12.37;;;;;;;;;;5037897;28;20182;-64
2022/04/04 12:27:31;;;;;;;13.10;11.70;;;;;;;;;;5019839;28;20662;-63
2022/04/04 12:30:06;;;;;;;14.97;13.37;;;;;;;;;;5037631;28;20720;-64
2022/04/04 12:32:38;;;;;;;9.87;8.90;;;;;;;;;;5037351;28;20626;-64
2022/04/04 12:35:08;;;;;;;14.93;13.33;;;;;;;;;;5037496;28;20410;-65
2022/04/04 12:37:35;;;;;;;18.90;12.47;;;;;;;;;;5037693;28;20829;-65
2022/04/04 12:40:16;;;;;;;13.97;12.50;;;;;;;;;;5037441;28;20495;-64
2022/04/04 12:42:42;;;;;;;13.50;12.10;;;;;;;;;;5019248;28;20209;-64
2022/04/04 12:45:08;;;;;;;13.90;11.97;;;;;;;;;;5036826;28;20194;-64
2022/04/04 12:47:34;;;;;;;16.27;12.70;;;;;;;;;;5037298;28;20231;-63
2022/04/04 12:50:16;;;;;;;11.33;10.10;;;;;;;;;;5037055;28;20426;-64
2022/04/04 12:53:15;;;;;;;15.37;13.57;;;;;;;;;;5019123;28;20175;-63
2022/04/04 12:55:45;;;;;;;13.03;11.60;;;;;;;;;;5004318;28;20195;-64
2022/04/04 12:58:15;;;;;;;13.87;11.30;;;;;;;;;;5037337;28;20246;-64
2022/04/04 13:00:41;;;;;;;14.03;12.63;;;;;;;;;;5036717;28;20500;-64
2022/04/04 13:03:27;;;;;;;14.50;13.00;;;;;;;;;;5037121;28;20190;-64
2022/04/04 13:06:01;;;;;;;13.90;12.03;;;;;;;;;;5036429;28;20417;-63
2022/04/04 13:08:28;;;;;;;10.57;9.47;;;;;;;;;;5018723;28;20253;-64
2022/04/04 13:11:08;;;;;;;13.67;11.90;;;;;;;;;;5036593;28;20234;-63
2022/04/04 13:13:34;;;;;;;15.53;13.70;;;;;;;;;;5036396;28;20440;-63
2022/04/04 13:16:00;;;;;;;14.30;12.90;;;;;;;;;;5036683;28;20556;-63
2022/04/04 13:18:26;;;;;;;12.97;11.57;;;;;;;;;;5036713;28;20210;-63
2022/04/04 13:20:53;;;;;;;14.17;12.77;;;;;;;;;;5018694;28;20195;-64
2022/04/04 13:23:20;;;;;;;14.93;12.67;;;;;;;;;;5036362;28;20179;-63
2022/04/04 13:25:46;;;;;;;12.83;10.13;;;;;;;;;;5036644;28;20511;-63
2022/04/04 13:28:13;;;;;;;12.63;11.30;;;;;;;;;;5036074;28;20203;-63
2022/04/04 13:30:40;;;;;;;12.17;10.83;;;;;;;;;;5036035;28;20807;-64
2022/04/04 13:33:06;;;;;;;33.80;20.53;;;;;;;;;;5018152;28;20179;-64
2022/04/04 13:35:33;;;;;;;13.13;11.83;;;;;;;;;;5035970;28;20175;-64
2022/04/04 13:37:59;;;;;;;16.40;13.97;;;;;;;;;;5035925;28;20183;-63
2022/04/04 13:40:25;;;;;;;21.03;16.33;;;;;;;;;;5018390;28;20207;-64
2022/04/04 13:42:51;;;;;;;14.73;13.13;;;;;;;;;;5035869;28;20194;-64
2022/04/04 13:45:17;;;;;;;13.83;12.13;;;;;;;;;;5035793;28;20427;-64
2022/04/04 13:47:43;;;;;;;14.47;12.97;;;;;;;;;;5036041;28;20242;-64
2022/04/04 13:50:10;;;;;;;14.00;12.47;;;;;;;;;;5035912;28;20430;-68
2022/04/04 13:52:40;;;;;;;12.77;11.40;;;;;;;;;;5035752;28;20414;-63
2022/04/04 13:55:08;;;;;;;15.53;12.87;;;;;;;;;;5036321;28;20489;-64
2022/04/04 13:57:35;;;;;;;12.53;11.30;;;;;;;;;;5035928;28;20442;-64
2022/04/04 14:00:01;;;;;;;11.07;9.93;;;;;;;;;;5035364;28;20262;-63
2022/04/04 14:02:27;;;;;;;16.60;13.10;;;;;;;;;;5017249;28;20421;-65
2022/04/04 14:04:53;;;;;;;19.77;17.60;;;;;;;;;;5035453;28;20175;-64
2022/04/04 14:07:19;;;;;;;13.83;12.37;;;;;;;;;;5035232;28;20199;-63
2022/04/04 14:09:46;;;;;;;13.67;12.37;;;;;;;;;;5035402;28;20241;-63
2022/04/04 14:12:12;;;;;;;13.83;12.40;;;;;;;;;;5017548;28;20608;-65
2022/04/04 14:14:38;;;;;;;20.63;17.43;;;;;;;;;;5035348;28;20182;-64
2022/04/04 14:17:06;;;;;;;17.00;13.43;;;;;;;;;;5035366;28;20175;-63
2022/04/04 14:19:32;;;;;;;15.80;14.20;;;;;;;;;;5034822;28;20195;-63
2022/04/04 14:21:58;;;;;;;10.47;9.47;;;;;;;;;;5034798;28;20183;-65
2022/04/04 14:24:24;;;;;;;12.90;11.60;;;;;;;;;;5034931;28;20526;-63
2022/04/04 14:26:50;;;;;;;14.97;12.93;;;;;;;;;;5035252;28;20179;-64
2022/04/04 14:29:17;;;;;;;14.30;12.90;;;;;;;;;;5017629;28;20178;-63
2022/04/04 14:31:43;;;;;;;18.97;15.13;;;;;;;;;;5035274;28;20171;-63
2022/04/04 14:34:09;;;;;;;35.97;24.13;;;;;;;;;;5034692;28;20213;-64
2022/04/04 14:36:35;;;;;;;16.87;14.40;;;;;;;;;;5035076;28;20183;-63
2022/04/04 14:39:03;;;;;;;16.53;14.73;;;;;;;;;;5034801;28;20438;-63
2022/04/04 14:41:29;;;;;;;15.60;13.90;;;;;;;;;;5034828;28;20179;-62
2022/04/04 14:43:55;;;;;;;12.50;11.20;;;;;;;;;;5017196;28;20214;-64
2022/04/04 14:46:21;;;;;;;13.13;11.83;;;;;;;;;;5035136;28;20599;-61
2022/04/04 14:48:47;;;;;;;14.40;11.93;;;;;;;;;;5034820;28;20685;-62
2022/04/04 14:51:16;;;;;;;15.03;12.70;;;;;;;;;;5034625;28;20266;-63
2022/04/04 14:53:42;;;;;;;11.53;10.30;;;;;;;;;;5017124;28;20183;-63